Time;durP1;ratioP1;P1;durP2;ratioP2;P2;SDS_P1;SDS_P2;PMS_P1;PMS_P2;Temp;Humidity;BMP_temperature;BMP_pressure;BME280_temperature;BME280_humidity;BME280_pressure;Samples;Min_cycle;Max_cycle;Signal;HPM_P1;HPM_P2
2021/06/06 00:01:43;;;;;;;21.77;20.30;;;18.20;90.80;;;;;;5054218;28;20461;-83
2021/06/06 00:04:14;;;;;;;21.53;19.63;;;18.10;91.10;;;;;;5043886;28;21385;-83
2021/06/06 00:06:40;;;;;;;22.00;20.50;;;18.10;90.90;;;;;;5054100;28;20510;-83
2021/06/06 00:09:11;;;;;;;20.30;19.00;;;18.10;90.90;;;;;;5044698;28;20502;-83
2021/06/06 00:11:41;;;;;;;21.00;19.70;;;18.10;91.10;;;;;;5047826;28;20462;-83
2021/06/06 00:14:13;;;;;;;20.90;19.50;;;18.10;91.10;;;;;;5061119;28;21120;-83
2021/06/06 00:16:44;;;;;;;21.87;20.37;;;18.10;91.30;;;;;;5045378;28;20541;-82
2021/06/06 00:19:11;;;;;;;22.60;21.00;;;18.20;90.70;;;;;;5045775;28;20455;-83
2021/06/06 00:21:38;;;;;;;22.63;21.03;;;18.10;90.30;;;;;;5058919;28;20473;-83
2021/06/06 00:24:07;;;;;;;20.93;19.10;;;18.10;90.60;;;;;;5058518;28;20505;-83
2021/06/06 00:26:34;;;;;;;20.33;18.93;;;18.00;91.00;;;;;;5053133;28;21439;-83
2021/06/06 00:29:01;;;;;;;19.90;18.70;;;18.00;91.20;;;;;;5057196;28;20481;-83
2021/06/06 00:31:28;;;;;;;21.17;19.77;;;18.00;90.90;;;;;;5048811;28;21315;-83
2021/06/06 00:33:55;;;;;;;20.10;18.70;;;18.00;91.40;;;;;;5049381;28;20874;-83
2021/06/06 00:36:23;;;;;;;20.23;18.93;;;17.90;91.10;;;;;;5053084;28;20462;-83
2021/06/06 00:38:50;;;;;;;20.07;18.80;;;17.90;91.00;;;;;;5058317;28;20553;-84
2021/06/06 00:41:19;;;;;;;21.03;19.67;;;17.90;90.50;;;;;;5059175;28;20470;-83
2021/06/06 00:43:46;;;;;;;20.63;19.23;;;17.90;90.60;;;;;;5059069;28;20564;-83
2021/06/06 00:46:14;;;;;;;20.13;18.83;;;17.90;90.70;;;;;;5053713;28;20459;-83
2021/06/06 00:48:42;;;;;;;19.63;18.43;;;17.90;91.00;;;;;;5062315;28;20473;-83
2021/06/06 00:51:14;;;;;;;19.70;18.50;;;17.90;91.00;;;;;;5058992;28;20467;-83
2021/06/06 00:53:43;;;;;;;20.77;19.30;;;17.90;90.70;;;;;;5059796;28;20487;-83
2021/06/06 00:56:13;;;;;;;19.73;18.50;;;17.90;90.70;;;;;;5053225;28;20459;-83
2021/06/06 00:58:42;;;;;;;20.33;18.67;;;18.00;90.30;;;;;;5047319;28;20463;-83
2021/06/06 01:01:11;;;;;;;20.70;19.30;;;18.00;90.20;;;;;;5045721;28;20467;-83
2021/06/06 01:03:38;;;;;;;20.00;18.60;;;17.90;90.50;;;;;;5059199;28;20484;-83
2021/06/06 01:06:11;;;;;;;19.20;17.83;;;17.80;91.30;;;;;;5058229;28;20540;-83
2021/06/06 01:08:39;;;;;;;20.50;19.13;;;17.90;91.00;;;;;;5066805;28;20515;-83
2021/06/06 01:11:16;;;;;;;20.03;18.63;;;17.80;91.10;;;;;;5048523;28;20457;-83
2021/06/06 01:13:45;;;;;;;18.57;17.57;;;17.80;91.00;;;;;;5046898;28;20513;-83
2021/06/06 01:16:18;;;;;;;20.13;18.73;;;17.90;90.50;;;;;;5049924;28;20457;-83
2021/06/06 01:18:47;;;;;;;18.80;17.60;;;17.90;90.20;;;;;;5063057;28;20923;-83
2021/06/06 01:21:41;;;;;;;21.00;19.50;;;17.80;90.50;;;;;;5047437;28;21066;-83
2021/06/06 01:24:19;;;;;;;20.33;19.07;;;17.80;90.50;;;;;;5052231;28;20577;-83
2021/06/06 01:26:49;;;;;;;19.53;18.33;;;17.70;90.90;;;;;;5054689;28;20470;-83
2021/06/06 01:29:26;;;;;;;19.63;18.40;;;17.80;90.90;;;;;;5052814;28;20558;-83
2021/06/06 01:31:56;;;;;;;18.60;17.60;;;17.70;91.10;;;;;;5065709;28;20926;-83
2021/06/06 01:34:26;;;;;;;20.40;19.10;;;17.70;90.90;;;;;;5051263;28;20467;-83
2021/06/06 01:36:55;;;;;;;20.73;19.40;;;17.70;91.10;;;;;;5045997;28;21020;-83
2021/06/06 01:39:27;;;;;;;20.60;19.30;;;17.60;91.40;;;;;;5048022;28;20501;-83
2021/06/06 01:41:58;;;;;;;20.30;19.10;;;17.70;91.10;;;;;;5046107;28;20785;-83
2021/06/06 01:44:27;;;;;;;19.27;18.13;;;17.80;90.40;;;;;;5048649;28;20462;-83
2021/06/06 01:46:58;;;;;;;19.80;18.50;;;17.70;90.90;;;;;;5053411;28;20568;-83
2021/06/06 01:49:26;;;;;;;19.50;18.20;;;17.70;91.10;;;;;;5050496;28;20502;-83
2021/06/06 01:51:56;;;;;;;18.97;17.83;;;17.80;90.70;;;;;;5053661;28;20450;-83
2021/06/06 01:54:29;;;;;;;19.03;17.90;;;17.80;90.70;;;;;;5054673;28;20534;-82
2021/06/06 01:56:56;;;;;;;19.00;17.90;;;17.80;90.50;;;;;;5053368;28;20553;-83
2021/06/06 01:59:27;;;;;;;20.00;18.37;;;17.70;90.60;;;;;;5057501;28;20537;-83
2021/06/06 02:01:54;;;;;;;19.73;18.43;;;17.80;90.60;;;;;;5060890;28;21046;-83
2021/06/06 02:04:23;;;;;;;18.10;17.00;;;17.70;90.60;;;;;;5056534;28;20461;-83
2021/06/06 02:06:54;;;;;;;18.90;17.70;;;17.70;90.60;;;;;;5046851;28;20541;-82
2021/06/06 02:09:28;;;;;;;19.60;18.40;;;17.80;90.40;;;;;;5056877;28;20519;-83
2021/06/06 02:11:58;;;;;;;18.80;17.70;;;17.70;90.70;;;;;;5069584;28;20455;-82
2021/06/06 02:14:28;;;;;;;18.87;17.77;;;17.60;90.70;;;;;;5064008;28;20469;-83
2021/06/06 02:16:59;;;;;;;18.93;17.83;;;17.60;91.00;;;;;;5046101;28;20446;-83
2021/06/06 02:19:30;;;;;;;18.60;17.60;;;17.70;91.00;;;;;;5047204;28;20470;-82
2021/06/06 02:21:59;;;;;;;18.90;17.80;;;17.50;91.00;;;;;;5055556;28;20462;-82
2021/06/06 02:24:28;;;;;;;18.60;17.40;;;17.50;91.50;;;;;;5059932;28;20465;-82
2021/06/06 02:26:59;;;;;;;18.20;17.10;;;17.50;91.40;;;;;;5052708;28;20454;-82
2021/06/06 02:29:32;;;;;;;19.37;18.27;;;17.60;91.30;;;;;;5051635;28;20551;-82
2021/06/06 02:32:02;;;;;;;18.57;17.47;;;17.70;90.90;;;;;;5057811;28;20488;-83
2021/06/06 02:34:39;;;;;;;18.97;17.87;;;17.60;90.80;;;;;;5064002;28;20573;-83
2021/06/06 02:37:13;;;;;;;18.93;17.83;;;17.50;91.20;;;;;;5075162;28;20521;-82
2021/06/06 02:39:47;;;;;;;18.33;17.33;;;17.40;91.50;;;;;;5060021;28;20455;-82
2021/06/06 02:42:18;;;;;;;18.53;17.53;;;17.40;91.70;;;;;;5053642;28;20622;-82
2021/06/06 02:44:48;;;;;;;19.53;18.27;;;17.40;91.70;;;;;;5067272;28;20466;-82
2021/06/06 02:47:18;;;;;;;20.47;19.27;;;17.30;91.70;;;;;;5061819;28;20470;-82
2021/06/06 02:49:47;;;;;;;19.70;18.20;;;17.40;91.50;;;;;;5049118;28;20491;-82
2021/06/06 02:52:17;;;;;;;19.30;18.00;;;17.40;91.70;;;;;;5057721;28;20585;-82
2021/06/06 02:54:52;;;;;;;19.83;18.73;;;17.40;91.70;;;;;;5047019;28;20553;-82
2021/06/06 02:57:21;;;;;;;19.50;18.10;;;17.50;91.30;;;;;;5056398;28;20564;-82
2021/06/06 02:59:51;;;;;;;18.60;17.50;;;17.50;91.00;;;;;;5055622;28;20474;-82
2021/06/06 03:02:24;;;;;;;19.90;18.60;;;17.50;91.10;;;;;;5059870;28;20488;-82
2021/06/06 03:04:56;;;;;;;18.47;17.47;;;17.50;91.10;;;;;;5052249;28;20835;-82
2021/06/06 03:07:27;;;;;;;18.60;17.53;;;17.40;91.10;;;;;;5061964;28;20506;-82
2021/06/06 03:09:54;;;;;;;18.77;17.67;;;17.40;91.40;;;;;;5065072;28;20480;-82
2021/06/06 03:12:22;;;;;;;18.60;17.50;;;17.40;91.60;;;;;;5068387;28;20708;-82
2021/06/06 03:14:50;;;;;;;18.13;17.03;;;17.40;92.00;;;;;;5062641;28;20459;-82
2021/06/06 03:17:21;;;;;;;18.77;17.70;;;17.50;91.50;;;;;;5066957;28;20468;-82
2021/06/06 03:19:52;;;;;;;18.23;17.23;;;17.50;91.20;;;;;;5058386;28;21126;-83
2021/06/06 03:22:22;;;;;;;19.47;18.27;;;17.30;91.60;;;;;;5044974;28;21011;-82
2021/06/06 03:24:54;;;;;;;19.83;18.63;;;17.30;92.00;;;;;;5052891;28;20934;-83
2021/06/06 03:27:24;;;;;;;18.03;16.93;;;17.40;91.80;;;;;;5050975;28;20467;-82
2021/06/06 03:29:57;;;;;;;18.63;17.63;;;17.40;91.70;;;;;;5053857;28;20478;-82
2021/06/06 03:32:28;;;;;;;18.43;17.23;;;17.30;92.10;;;;;;5051696;28;20489;-82
2021/06/06 03:34:54;;;;;;;18.40;17.37;;;17.20;92.40;;;;;;5055632;28;20472;-83
2021/06/06 03:37:21;;;;;;;18.40;17.40;;;17.20;92.60;;;;;;5046847;28;20459;-83
2021/06/06 03:39:48;;;;;;;17.93;16.93;;;17.20;92.50;;;;;;5050117;28;20467;-83
2021/06/06 03:42:15;;;;;;;18.80;17.60;;;17.30;92.10;;;;;;5045257;28;20539;-83
2021/06/06 03:44:43;;;;;;;19.07;17.90;;;17.30;91.80;;;;;;5061498;28;20493;-83
2021/06/06 03:47:09;;;;;;;18.40;17.30;;;17.30;92.00;;;;;;5051516;28;20577;-83
2021/06/06 03:49:36;;;;;;;18.90;17.90;;;17.30;91.50;;;;;;5056023;28;20564;-83
2021/06/06 03:52:03;;;;;;;20.40;19.20;;;17.30;91.70;;;;;;5048869;28;20450;-82
2021/06/06 03:54:30;;;;;;;21.20;19.90;;;17.30;91.70;;;;;;5052836;28;20947;-82
2021/06/06 03:56:57;;;;;;;19.63;18.37;;;17.20;91.90;;;;;;5044537;28;20813;-82
2021/06/06 03:59:23;;;;;;;19.93;18.50;;;17.20;92.10;;;;;;5052662;28;20513;-82
2021/06/06 04:01:52;;;;;;;20.83;19.43;;;17.20;91.80;;;;;;5055857;28;20468;-82
2021/06/06 04:04:19;;;;;;;19.87;18.67;;;17.30;90.70;;;;;;5047919;28;20459;-82
2021/06/06 04:06:47;;;;;;;20.00;18.77;;;17.40;90.30;;;;;;5066300;28;20488;-83
2021/06/06 04:09:14;;;;;;;19.93;18.57;;;17.30;90.80;;;;;;5062760;28;20491;-83
2021/06/06 04:11:40;;;;;;;19.77;18.57;;;17.30;90.90;;;;;;5060117;28;20523;-83
2021/06/06 04:14:08;;;;;;;19.20;17.93;;;17.30;90.90;;;;;;5056960;28;20505;-83
2021/06/06 04:16:36;;;;;;;18.77;17.60;;;17.40;91.00;;;;;;5054459;28;20454;-83
2021/06/06 04:19:05;;;;;;;19.10;17.80;;;17.40;90.70;;;;;;5060113;28;20461;-83
2021/06/06 04:21:33;;;;;;;19.80;18.50;;;17.50;90.40;;;;;;5060079;28;21045;-83
2021/06/06 04:24:00;;;;;;;20.57;19.37;;;17.50;90.10;;;;;;5053772;28;20474;-83
2021/06/06 04:26:27;;;;;;;20.87;19.27;;;17.50;90.50;;;;;;5050250;28;20464;-83
2021/06/06 04:28:54;;;;;;;21.43;19.83;;;17.50;90.50;;;;;;5057704;28;20489;-83
2021/06/06 04:31:21;;;;;;;20.27;18.93;;;17.60;89.70;;;;;;5056536;28;20577;-83
2021/06/06 04:33:48;;;;;;;20.90;19.60;;;17.50;89.60;;;;;;5062080;28;20579;-83
2021/06/06 04:36:16;;;;;;;22.17;20.67;;;17.50;89.80;;;;;;5064820;28;20839;-83
2021/06/06 04:38:42;;;;;;;20.87;19.20;;;17.50;89.20;;;;;;5067019;28;20721;-83
2021/06/06 04:41:11;;;;;;;20.97;19.53;;;17.40;89.70;;;;;;5060418;28;20462;-83
2021/06/06 04:43:38;;;;;;;20.30;18.90;;;17.30;90.10;;;;;;5066462;28;20524;-83
2021/06/06 04:46:06;;;;;;;20.93;19.33;;;17.30;90.30;;;;;;5057148;28;20519;-80
2021/06/06 04:48:35;;;;;;;20.50;18.97;;;17.40;90.10;;;;;;5054455;28;20507;-82
2021/06/06 04:51:05;;;;;;;21.07;19.73;;;17.50;89.30;;;;;;5056750;28;20469;-82
2021/06/06 04:53:34;;;;;;;21.67;20.17;;;17.40;89.80;;;;;;5052201;28;21283;-82
2021/06/06 04:56:01;;;;;;;21.50;20.07;;;17.40;90.00;;;;;;5048104;28;20459;-82
2021/06/06 04:58:29;;;;;;;22.00;20.07;;;17.40;89.90;;;;;;5052771;28;20454;-82
2021/06/06 05:00:55;;;;;;;21.70;20.20;;;17.40;89.90;;;;;;5059370;28;21225;-82
2021/06/06 05:03:22;;;;;;;23.00;21.00;;;17.50;89.40;;;;;;5065630;28;20562;-82
2021/06/06 05:05:49;;;;;;;22.67;20.77;;;17.40;89.70;;;;;;5061775;28;20545;-82
2021/06/06 05:08:18;;;;;;;23.33;21.50;;;17.20;90.40;;;;;;5063179;28;20471;-82
2021/06/06 05:10:47;;;;;;;22.20;20.60;;;17.20;90.40;;;;;;5055938;28;20509;-82
2021/06/06 05:13:15;;;;;;;23.73;21.83;;;17.30;90.40;;;;;;5046616;28;20544;-82
2021/06/06 05:15:41;;;;;;;23.57;21.47;;;17.30;90.60;;;;;;5057660;28;20458;-82
2021/06/06 05:18:09;;;;;;;22.57;20.87;;;17.30;90.20;;;;;;5057251;28;20467;-82
2021/06/06 05:20:37;;;;;;;22.03;20.43;;;17.40;90.20;;;;;;5064178;28;20458;-82
2021/06/06 05:23:04;;;;;;;22.70;20.97;;;17.40;89.80;;;;;;5051442;28;20482;-82
2021/06/06 05:25:31;;;;;;;21.53;20.00;;;17.30;90.00;;;;;;5047567;28;20465;-82
2021/06/06 05:27:59;;;;;;;22.23;20.73;;;17.50;89.70;;;;;;5051299;28;20470;-82
2021/06/06 05:30:28;;;;;;;22.33;20.63;;;17.50;89.50;;;;;;5055893;28;20464;-82
2021/06/06 05:32:55;;;;;;;22.30;20.80;;;17.50;89.30;;;;;;5054059;28;20485;-82
2021/06/06 05:35:25;;;;;;;23.17;21.27;;;17.50;89.70;;;;;;5049021;28;20459;-82
2021/06/06 05:37:51;;;;;;;21.70;20.23;;;17.40;89.60;;;;;;5048943;28;20522;-82
2021/06/06 05:40:18;;;;;;;22.23;20.63;;;17.50;89.30;;;;;;5063857;28;21074;-82
2021/06/06 05:42:45;;;;;;;21.77;20.10;;;17.50;89.30;;;;;;5057589;28;20539;-82
2021/06/06 05:45:15;;;;;;;22.77;21.03;;;17.40;89.20;;;;;;5077568;28;21339;-82
2021/06/06 05:47:42;;;;;;;23.23;21.43;;;17.20;89.90;;;;;;5061750;28;21075;-82
2021/06/06 05:50:11;;;;;;;21.50;19.90;;;17.00;90.30;;;;;;5057513;28;20489;-82
2021/06/06 05:52:37;;;;;;;22.00;20.40;;;17.00;90.80;;;;;;5055272;28;20603;-82
2021/06/06 05:55:06;;;;;;;22.73;20.93;;;16.90;91.00;;;;;;5058341;28;20459;-82
2021/06/06 05:57:33;;;;;;;22.17;20.50;;;17.00;91.30;;;;;;5053601;28;20494;-82
2021/06/06 05:59:59;;;;;;;22.63;20.83;;;16.90;91.40;;;;;;5051335;28;20633;-82
2021/06/06 06:02:27;;;;;;;21.73;20.23;;;17.00;91.20;;;;;;5053965;28;20480;-82
2021/06/06 06:04:53;;;;;;;23.50;21.83;;;17.10;91.10;;;;;;5063056;28;21043;-82
2021/06/06 06:07:20;;;;;;;24.63;22.57;;;17.10;90.60;;;;;;5072675;28;20498;-82
2021/06/06 06:09:46;;;;;;;22.33;20.83;;;17.00;91.30;;;;;;5057506;28;20476;-82
2021/06/06 06:12:13;;;;;;;23.30;21.70;;;17.10;91.00;;;;;;5059643;28;20480;-82
2021/06/06 06:14:39;;;;;;;22.67;21.10;;;17.20;90.80;;;;;;5062641;28;20467;-82
2021/06/06 06:17:05;;;;;;;22.10;20.60;;;17.20;90.50;;;;;;5047775;28;20463;-81
2021/06/06 06:19:33;;;;;;;23.00;21.40;;;17.20;90.40;;;;;;5052951;28;20449;-81
2021/06/06 06:22:00;;;;;;;22.90;21.30;;;17.20;90.20;;;;;;5059858;28;20576;-82
2021/06/06 06:24:27;;;;;;;24.67;22.97;;;17.10;91.00;;;;;;5062846;28;20470;-82
2021/06/06 06:26:55;;;;;;;22.50;20.97;;;17.00;91.30;;;;;;5057842;28;20695;-82
2021/06/06 06:29:22;;;;;;;21.60;20.20;;;17.00;91.40;;;;;;5048593;28;20487;-82
2021/06/06 06:31:48;;;;;;;22.57;20.90;;;16.90;91.80;;;;;;5060064;28;20469;-81
2021/06/06 06:34:15;;;;;;;22.57;21.00;;;16.80;92.70;;;;;;5061727;28;20489;-82
2021/06/06 06:36:46;;;;;;;21.40;20.00;;;16.80;93.00;;;;;;5056816;28;20462;-82
2021/06/06 06:39:13;;;;;;;21.73;20.03;;;16.70;93.10;;;;;;5053408;28;20491;-81
2021/06/06 06:41:40;;;;;;;20.97;19.57;;;16.60;93.70;;;;;;5046436;28;20463;-82
2021/06/06 06:44:06;;;;;;;20.70;19.30;;;16.60;94.00;;;;;;5053215;28;20529;-82
2021/06/06 06:46:33;;;;;;;22.10;20.60;;;16.70;93.70;;;;;;5062357;28;20473;-82
2021/06/06 06:48:59;;;;;;;21.47;19.77;;;16.70;93.60;;;;;;5056627;28;20470;-82
2021/06/06 06:51:27;;;;;;;22.27;20.57;;;16.80;93.20;;;;;;5063344;28;20453;-82
2021/06/06 06:53:56;;;;;;;21.30;19.80;;;16.60;93.50;;;;;;5046115;28;20490;-82
2021/06/06 06:56:23;;;;;;;21.50;20.10;;;16.70;93.80;;;;;;5046548;28;20497;-82
2021/06/06 06:58:49;;;;;;;22.30;20.70;;;16.70;93.60;;;;;;5044454;28;21285;-82
2021/06/06 07:01:17;;;;;;;22.23;20.53;;;16.80;93.00;;;;;;5060478;28;20458;-82
2021/06/06 07:03:43;;;;;;;23.20;21.60;;;16.70;93.60;;;;;;5056178;28;20505;-82
2021/06/06 07:06:10;;;;;;;20.17;18.73;;;16.60;94.10;;;;;;5057489;28;20971;-81
2021/06/06 07:08:38;;;;;;;21.10;19.60;;;16.70;93.80;;;;;;5060591;28;20500;-81
2021/06/06 07:11:10;;;;;;;20.47;19.07;;;17.00;93.20;;;;;;5046920;28;20659;-82
2021/06/06 07:13:37;;;;;;;22.20;20.70;;;16.90;92.50;;;;;;5048111;28;20511;-81
2021/06/06 07:16:05;;;;;;;20.97;19.57;;;16.90;92.90;;;;;;5059855;28;21003;-80
2021/06/06 07:18:32;;;;;;;21.47;20.07;;;16.90;92.30;;;;;;5058916;28;20459;-80
2021/06/06 07:21:00;;;;;;;21.67;20.27;;;16.90;92.70;;;;;;5055799;28;20554;-77
2021/06/06 07:23:29;;;;;;;19.80;18.60;;;16.80;92.50;;;;;;5056280;28;20478;-76
2021/06/06 07:25:56;;;;;;;20.70;19.30;;;16.80;92.80;;;;;;5058312;28;20549;-77
2021/06/06 07:28:27;;;;;;;21.30;19.70;;;16.70;93.20;;;;;;5053404;28;20591;-77
2021/06/06 07:30:57;;;;;;;22.30;20.63;;;16.60;94.00;;;;;;5058625;28;20462;-79
2021/06/06 07:33:27;;;;;;;21.50;19.83;;;16.60;93.90;;;;;;5051519;28;21018;-80
2021/06/06 07:35:55;;;;;;;21.30;19.60;;;16.60;93.70;;;;;;5047753;28;20465;-80
2021/06/06 07:38:23;;;;;;;21.20;19.77;;;16.80;93.70;;;;;;5051561;28;20462;-78
2021/06/06 07:40:51;;;;;;;21.40;19.90;;;16.70;93.30;;;;;;5057527;28;20546;-75
2021/06/06 07:43:17;;;;;;;21.70;20.20;;;16.60;94.00;;;;;;5055980;28;20586;-76
2021/06/06 07:45:45;;;;;;;21.60;20.10;;;16.70;93.60;;;;;;5068274;28;20455;-76
2021/06/06 07:48:12;;;;;;;23.87;22.07;;;16.60;94.00;;;;;;5053199;28;20833;-78
2021/06/06 07:50:43;;;;;;;22.43;20.70;;;16.60;94.30;;;;;;5053864;28;20466;-75
2021/06/06 07:53:10;;;;;;;24.07;22.17;;;16.50;94.90;;;;;;5048905;28;20475;-75
2021/06/06 07:55:37;;;;;;;22.30;20.60;;;16.60;94.50;;;;;;5049379;28;21053;-77
2021/06/06 07:58:04;;;;;;;23.70;21.60;;;16.80;93.70;;;;;;5056163;28;20471;-75
2021/06/06 08:00:34;;;;;;;22.33;20.33;;;16.60;94.00;;;;;;5048309;28;20465;-74
2021/06/06 08:03:02;;;;;;;23.97;21.80;;;16.70;94.20;;;;;;5048310;28;20477;-75
2021/06/06 08:05:29;;;;;;;21.20;19.50;;;16.60;94.50;;;;;;5051210;28;20467;-75
2021/06/06 08:07:55;;;;;;;23.10;21.20;;;16.60;94.40;;;;;;5051260;28;20571;-73
2021/06/06 08:10:24;;;;;;;24.70;22.40;;;16.70;94.20;;;;;;5046839;28;20483;-75
2021/06/06 08:12:51;;;;;;;22.87;20.87;;;16.60;94.20;;;;;;5055779;28;20561;-75
2021/06/06 08:15:19;;;;;;;23.83;21.73;;;16.70;94.30;;;;;;5057055;28;20517;-74
2021/06/06 08:17:46;;;;;;;21.47;19.93;;;16.80;93.40;;;;;;5059662;28;20459;-74
2021/06/06 08:20:18;;;;;;;21.63;19.90;;;16.90;93.40;;;;;;5054510;28;20465;-75
2021/06/06 08:22:44;;;;;;;21.67;19.80;;;16.80;93.70;;;;;;5057118;28;20482;-74
2021/06/06 08:25:13;;;;;;;24.03;21.73;;;16.90;93.50;;;;;;5051394;28;20522;-79
2021/06/06 08:27:42;;;;;;;24.00;22.10;;;16.80;93.40;;;;;;5060097;28;20947;-78
2021/06/06 08:30:11;;;;;;;24.27;21.87;;;16.90;93.40;;;;;;5058262;28;21285;-78
2021/06/06 08:32:38;;;;;;;24.53;22.53;;;16.80;93.40;;;;;;5055851;28;20537;-79
2021/06/06 08:35:06;;;;;;;22.10;20.40;;;16.70;94.20;;;;;;5055689;28;20977;-81
2021/06/06 08:37:34;;;;;;;22.97;21.33;;;16.90;94.10;;;;;;5059045;28;20465;-79
2021/06/06 08:40:01;;;;;;;25.50;23.33;;;17.00;93.00;;;;;;5054135;28;20459;-76
2021/06/06 08:42:31;;;;;;;22.97;21.17;;;16.90;93.50;;;;;;5055144;28;20539;-73
2021/06/06 08:45:05;;;;;;;24.90;23.00;;;17.00;93.50;;;;;;5056352;28;20620;-77
2021/06/06 08:47:33;;;;;;;21.63;20.00;;;17.00;93.40;;;;;;5050254;28;20454;-77
2021/06/06 08:50:04;;;;;;;22.77;21.03;;;17.10;93.30;;;;;;5063235;28;20995;-78
2021/06/06 08:52:42;;;;;;;23.33;21.63;;;17.00;93.00;;;;;;5050147;28;20575;-79
2021/06/06 08:55:19;;;;;;;25.13;22.57;;;16.90;93.60;;;;;;5063564;28;20576;-76
2021/06/06 08:57:48;;;;;;;25.27;23.17;;;16.80;94.30;;;;;;5050352;28;20522;-75
2021/06/06 09:00:21;;;;;;;25.03;22.97;;;16.90;94.40;;;;;;5056652;28;20487;-75
2021/06/06 09:02:49;;;;;;;25.93;23.60;;;17.10;93.90;;;;;;5061700;28;20531;-76
2021/06/06 09:05:25;;;;;;;25.10;22.93;;;17.10;93.50;;;;;;5061515;28;20461;-75
2021/06/06 09:07:54;;;;;;;25.43;23.60;;;17.20;93.20;;;;;;5056713;28;20901;-74
2021/06/06 09:10:24;;;;;;;22.73;20.90;;;17.00;92.90;;;;;;5052945;28;20898;-75
2021/06/06 09:12:51;;;;;;;21.70;20.20;;;17.00;93.60;;;;;;5057254;28;20825;-76
2021/06/06 09:15:20;;;;;;;23.27;21.17;;;16.90;93.40;;;;;;5046329;28;20463;-75
2021/06/06 09:17:56;;;;;;;22.53;20.80;;;17.00;93.60;;;;;;5053745;28;20454;-75
2021/06/06 09:20:32;;;;;;;22.93;21.10;;;17.10;92.50;;;;;;5054256;28;20545;-76
2021/06/06 09:23:10;;;;;;;25.57;23.43;;;17.20;92.40;;;;;;5059359;28;20514;-76
2021/06/06 09:25:38;;;;;;;24.33;22.33;;;17.20;92.30;;;;;;5063578;28;20457;-75
2021/06/06 09:28:09;;;;;;;25.80;23.57;;;17.00;92.60;;;;;;5063263;28;20873;-75
2021/06/06 09:30:37;;;;;;;27.33;24.87;;;16.90;93.10;;;;;;5062084;28;20490;-76
2021/06/06 09:33:06;;;;;;;26.77;24.50;;;17.00;92.90;;;;;;5063909;28;20490;-76
2021/06/06 09:35:35;;;;;;;28.83;26.10;;;17.00;92.90;;;;;;5052212;28;20466;-76
2021/06/06 09:38:14;;;;;;;26.43;24.00;;;16.90;93.40;;;;;;5064262;28;20464;-76
2021/06/06 09:40:43;;;;;;;28.17;25.43;;;16.90;93.40;;;;;;5046613;28;20454;-76
2021/06/06 09:43:28;;;;;;;26.20;23.90;;;17.00;93.40;;;;;;5050051;28;20489;-77
2021/06/06 09:46:05;;;;;;;28.13;25.60;;;17.10;92.70;;;;;;5052665;28;20469;-76
2021/06/06 09:48:39;;;;;;;25.27;23.30;;;17.20;92.20;;;;;;5059672;28;20560;-77
2021/06/06 09:51:12;;;;;;;26.57;24.37;;;17.30;91.80;;;;;;5062801;28;20458;-76
2021/06/06 09:53:42;;;;;;;26.27;24.03;;;17.50;91.40;;;;;;5046565;28;20478;-76
2021/06/06 09:56:13;;;;;;;28.00;25.53;;;17.70;90.60;;;;;;5048535;28;20491;-77
2021/06/06 09:58:41;;;;;;;29.70;27.17;;;17.60;90.40;;;;;;5048113;28;20462;-76
2021/06/06 10:01:23;;;;;;;31.70;28.80;;;17.60;90.00;;;;;;5065344;28;21277;-77
2021/06/06 10:03:56;;;;;;;36.30;33.23;;;17.40;90.80;;;;;;5062644;28;20476;-77
2021/06/06 10:06:29;;;;;;;34.57;31.43;;;17.30;91.40;;;;;;5057329;28;20465;-77
2021/06/06 10:09:05;;;;;;;35.20;32.30;;;17.30;91.80;;;;;;5064361;28;20501;-76
2021/06/06 10:11:52;;;;;;;33.33;30.30;;;17.20;92.10;;;;;;5060228;28;20567;-77
2021/06/06 10:14:22;;;;;;;32.93;29.90;;;17.20;92.50;;;;;;5059466;28;20564;-76
2021/06/06 10:16:50;;;;;;;35.30;31.67;;;17.50;91.70;;;;;;5060431;28;20467;-76
2021/06/06 10:19:21;;;;;;;34.37;31.13;;;17.70;90.80;;;;;;5064168;28;20440;-74
2021/06/06 10:21:50;;;;;;;37.37;33.47;;;17.70;90.00;;;;;;5045762;28;20470;-75
2021/06/06 10:24:22;;;;;;;38.30;34.50;;;17.60;90.00;;;;;;5059581;28;20461;-76
2021/06/06 10:26:52;;;;;;;37.27;33.50;;;17.30;91.80;;;;;;5046371;28;20523;-78
2021/06/06 10:29:26;;;;;;;38.40;34.77;;;17.40;91.70;;;;;;5044961;28;20923;-77
2021/06/06 10:31:55;;;;;;;37.97;34.37;;;17.60;90.90;;;;;;5059683;28;20465;-79
2021/06/06 10:34:30;;;;;;;37.67;34.23;;;17.60;90.30;;;;;;5059275;28;20478;-77
2021/06/06 10:36:58;;;;;;;40.27;36.67;;;17.70;90.30;;;;;;5053784;28;20452;-78
2021/06/06 10:39:31;;;;;;;42.90;38.63;;;17.60;90.50;;;;;;5063211;28;20482;-76
2021/06/06 10:42:03;;;;;;;39.47;35.70;;;17.50;90.50;;;;;;5060683;28;21088;-77
2021/06/06 10:44:37;;;;;;;39.47;35.83;;;17.40;91.40;;;;;;5058622;28;20468;-77
2021/06/06 10:47:11;;;;;;;38.80;35.20;;;17.50;91.40;;;;;;5060800;28;20462;-76
2021/06/06 10:49:48;;;;;;;41.97;38.27;;;17.50;91.10;;;;;;5043767;28;21175;-77
2021/06/06 10:52:24;;;;;;;40.13;36.40;;;17.50;91.20;;;;;;5051434;28;20471;-77
2021/06/06 10:54:55;;;;;;;42.90;38.80;;;17.50;91.30;;;;;;5061590;28;20464;-77
2021/06/06 10:57:35;;;;;;;43.10;39.10;;;17.40;91.80;;;;;;5043894;28;20548;-77
2021/06/06 11:00:19;;;;;;;43.63;39.20;;;17.50;91.70;;;;;;5050497;28;20458;-77
2021/06/06 11:02:55;;;;;;;45.23;41.03;;;17.40;91.30;;;;;;5042760;28;20552;-78
2021/06/06 11:05:36;;;;;;;46.27;41.53;;;17.30;92.20;;;;;;5043066;28;20462;-78
2021/06/06 11:08:02;;;;;;;45.87;41.27;;;17.30;91.60;;;;;;5043500;28;20455;-77
2021/06/06 11:10:39;;;;;;;47.10;40.90;;;17.30;91.80;;;;;;5060003;28;20909;-78
2021/06/06 11:13:33;;;;;;;49.67;44.77;;;17.30;92.40;;;;;;5050410;28;20859;-77
2021/06/06 11:16:02;;;;;;;49.10;43.80;;;17.50;92.00;;;;;;5054863;28;20541;-77
2021/06/06 11:18:29;;;;;;;54.87;46.40;;;17.50;91.60;;;;;;5056401;28;20490;-73
2021/06/06 11:20:59;;;;;;;55.53;49.43;;;17.50;91.30;;;;;;5049372;28;20553;-73
2021/06/06 11:23:36;;;;;;;51.73;46.27;;;17.50;91.60;;;;;;5056487;28;20922;-73
2021/06/06 11:26:20;;;;;;;52.30;46.67;;;17.50;92.00;;;;;;5056060;28;21073;-74
2021/06/06 11:28:47;;;;;;;57.17;48.30;;;17.50;91.90;;;;;;5049683;28;20473;-74
2021/06/06 11:31:24;;;;;;;63.03;49.10;;;17.20;92.20;;;;;;5059551;28;20467;-74
2021/06/06 11:34:02;;;;;;;57.27;47.27;;;17.20;93.00;;;;;;5054214;28;20825;-74
2021/06/06 11:36:31;;;;;;;65.13;53.27;;;17.10;93.40;;;;;;5047276;28;20552;-73
2021/06/06 11:39:12;;;;;;;62.10;52.03;;;16.90;93.40;;;;;;5053480;28;20467;-73
2021/06/06 11:41:43;;;;;;;62.80;52.20;;;17.10;93.90;;;;;;5052050;28;20933;-74
2021/06/06 11:44:28;;;;;;;67.80;53.03;;;17.00;93.70;;;;;;5042884;28;20478;-73
2021/06/06 11:47:00;;;;;;;68.77;52.30;;;17.10;93.60;;;;;;5047723;28;20492;-73
2021/06/06 11:49:34;;;;;;;66.00;53.40;;;17.20;93.70;;;;;;5055641;28;20485;-73
2021/06/06 11:52:08;;;;;;;69.60;55.67;;;17.30;93.30;;;;;;5061422;28;20457;-73
2021/06/06 11:54:38;;;;;;;67.33;53.73;;;17.30;93.20;;;;;;5058150;28;21077;-73
2021/06/06 11:57:09;;;;;;;78.30;56.97;;;17.30;93.20;;;;;;5054072;28;20925;-73
2021/06/06 11:59:40;;;;;;;67.83;56.00;;;17.30;93.30;;;;;;5059775;28;20459;-74
2021/06/06 12:02:13;;;;;;;66.07;53.87;;;17.10;93.70;;;;;;5061387;28;20760;-75
2021/06/06 12:04:40;;;;;;;67.57;52.53;;;17.30;93.40;;;;;;5055716;28;20854;-75
2021/06/06 12:07:13;;;;;;;66.40;51.27;;;17.40;93.30;;;;;;5059338;28;20529;-74
2021/06/06 12:09:43;;;;;;;67.30;53.70;;;17.40;92.30;;;;;;5051709;28;20565;-73
2021/06/06 12:12:14;;;;;;;54.97;49.00;;;17.50;92.50;;;;;;5042378;28;20482;-74
2021/06/06 12:14:41;;;;;;;58.60;49.60;;;17.60;92.10;;;;;;5054238;28;20471;-74
2021/06/06 12:17:19;;;;;;;56.73;48.00;;;17.60;91.90;;;;;;5049926;28;20471;-74
2021/06/06 12:19:51;;;;;;;50.03;45.00;;;17.80;91.50;;;;;;5042218;28;20500;-73
2021/06/06 12:22:26;;;;;;;52.83;46.57;;;17.80;91.20;;;;;;5056061;28;20481;-73
2021/06/06 12:25:11;;;;;;;50.87;45.40;;;17.60;91.80;;;;;;5047120;28;20462;-73
2021/06/06 12:27:44;;;;;;;52.83;47.13;;;17.60;92.70;;;;;;5047107;28;20512;-74
2021/06/06 12:30:19;;;;;;;49.83;44.53;;;17.70;92.50;;;;;;5047250;28;21002;-74
2021/06/06 12:32:53;;;;;;;51.03;45.60;;;17.90;91.90;;;;;;5060840;28;20492;-75
2021/06/06 12:35:24;;;;;;;47.47;42.90;;;18.00;90.80;;;;;;5055322;28;20473;-77
2021/06/06 12:37:57;;;;;;;48.67;43.87;;;17.80;91.50;;;;;;5055010;28;20924;-75
2021/06/06 12:40:26;;;;;;;50.17;45.10;;;17.90;91.50;;;;;;5054370;28;20515;-75
2021/06/06 12:42:58;;;;;;;47.10;42.40;;;18.10;91.40;;;;;;5060332;28;20477;-77